sensor_id;sensor_type;location;lat;lon;timestamp;pressure;altitude;pressure_sealevel;temperature;humidity
29385;BME280;16367;48.736;9.218;2023-09-07T00:00:11;-23771.13;;;19.14;74.41
29385;BME280;16367;48.736;9.218;2023-09-07T00:02:13;-23772.38;;;19.18;75.20
29385;BME280;16367;48.736;9.218;2023-09-07T00:04:15;-23766.41;;;18.99;75.19
29385;BME280;16367;48.736;9.218;2023-09-07T00:06:18;-23764.38;;;18.93;75.94
29385;BME280;16367;48.736;9.218;2023-09-07T00:08:22;-23764.38;;;18.93;76.31
29385;BME280;16367;48.736;9.218;2023-09-07T00:10:27;-23759.34;;;18.77;77.42
29385;BME280;16367;48.736;9.218;2023-09-07T00:12:29;-23756.97;;;18.69;77.67
29385;BME280;16367;48.736;9.218;2023-09-07T00:14:32;-23768.75;;;19.07;75.54
29385;BME280;16367;48.736;9.218;2023-09-07T00:16:35;-23760.59;;;18.81;79.01
29385;BME280;16367;48.736;9.218;2023-09-07T00:18:39;-23760.28;;;18.80;75.86
29385;BME280;16367;48.736;9.218;2023-09-07T00:20:42;-23763.75;;;18.91;77.05
29385;BME280;16367;48.736;9.218;2023-09-07T00:22:44;-23758.25;;;18.73;78.83
29385;BME280;16367;48.736;9.218;2023-09-07T00:24:48;-23755.09;;;18.63;78.74
29385;BME280;16367;48.736;9.218;2023-09-07T00:26:51;-23748.31;;;18.41;80.62
29385;BME280;16367;48.736;9.218;2023-09-07T00:28:54;-23754.31;;;18.60;79.50
29385;BME280;16367;48.736;9.218;2023-09-07T00:30:57;-23752.25;;;18.54;79.68
29385;BME280;16367;48.736;9.218;2023-09-07T00:33:00;-23747.38;;;18.38;81.40
29385;BME280;16367;48.736;9.218;2023-09-07T00:35:03;-23749.44;;;18.45;80.00
29385;BME280;16367;48.736;9.218;2023-09-07T00:37:06;-23749.91;;;18.46;81.04
29385;BME280;16367;48.736;9.218;2023-09-07T00:39:09;-23740.16;;;18.15;84.66
29385;BME280;16367;48.736;9.218;2023-09-07T00:41:13;-23737.16;;;18.06;85.57
29385;BME280;16367;48.736;9.218;2023-09-07T00:43:16;-23736.38;;;18.03;85.62
29385;BME280;16367;48.736;9.218;2023-09-07T00:45:18;-23737.00;;;18.05;85.13
29385;BME280;16367;48.736;9.218;2023-09-07T00:47:21;-23740.31;;;18.16;83.82
29385;BME280;16367;48.736;9.218;2023-09-07T00:49:25;-23737.47;;;18.07;84.56
29385;BME280;16367;48.736;9.218;2023-09-07T00:51:28;-23737.00;;;18.05;85.47
29385;BME280;16367;48.736;9.218;2023-09-07T00:53:31;-23738.91;;;18.11;84.69
29385;BME280;16367;48.736;9.218;2023-09-07T00:55:35;-23739.84;;;18.14;84.12
29385;BME280;16367;48.736;9.218;2023-09-07T00:57:39;-23738.91;;;18.11;84.51
29385;BME280;16367;48.736;9.218;2023-09-07T00:59:44;-23740.78;;;18.17;84.21
29385;BME280;16367;48.736;9.218;2023-09-07T01:01:47;-23738.25;;;18.09;85.78
29385;BME280;16367;48.736;9.218;2023-09-07T01:03:51;-23738.09;;;18.09;84.92
29385;BME280;16367;48.736;9.218;2023-09-07T01:05:58;-23738.72;;;18.11;85.93
29385;BME280;16367;48.736;9.218;2023-09-07T01:08:10;-23734.19;;;17.96;87.44
29385;BME280;16367;48.736;9.218;2023-09-07T01:10:13;-23727.56;;;17.75;89.95
29385;BME280;16367;48.736;9.218;2023-09-07T01:12:17;-23728.03;;;17.76;87.67
29385;BME280;16367;48.736;9.218;2023-09-07T01:14:21;-23730.41;;;17.84;89.83
29385;BME280;16367;48.736;9.218;2023-09-07T01:16:24;-23731.34;;;17.87;90.06
29385;BME280;16367;48.736;9.218;2023-09-07T01:18:27;-23730.88;;;17.85;87.93
29385;BME280;16367;48.736;9.218;2023-09-07T01:20:32;-23730.41;;;17.84;89.78
29385;BME280;16367;48.736;9.218;2023-09-07T01:22:36;-23726.94;;;17.73;90.80
29385;BME280;16367;48.736;9.218;2023-09-07T01:24:40;-23727.09;;;17.73;90.14
29385;BME280;16367;48.736;9.218;2023-09-07T01:26:43;-23725.69;;;17.69;91.02
29385;BME280;16367;48.736;9.218;2023-09-07T01:28:51;-23723.47;;;17.62;91.96
29385;BME280;16367;48.736;9.218;2023-09-07T01:30:53;-23721.59;;;17.56;93.09
29385;BME280;16367;48.736;9.218;2023-09-07T01:32:56;-23720.00;;;17.51;92.63
29385;BME280;16367;48.736;9.218;2023-09-07T01:35:01;-23720.34;;;17.52;92.52
29385;BME280;16367;48.736;9.218;2023-09-07T01:37:06;-23714.34;;;17.33;93.06
29385;BME280;16367;48.736;9.218;2023-09-07T01:39:10;-23715.13;;;17.35;94.42
29385;BME280;16367;48.736;9.218;2023-09-07T01:41:13;-23708.38;;;17.13;95.28
29385;BME280;16367;48.736;9.218;2023-09-07T01:43:16;-23710.88;;;17.22;94.39
29385;BME280;16367;48.736;9.218;2023-09-07T01:45:19;-23710.72;;;17.21;93.37
29385;BME280;16367;48.736;9.218;2023-09-07T01:47:22;-23710.56;;;17.21;93.49
29385;BME280;16367;48.736;9.218;2023-09-07T01:49:25;-23708.69;;;17.14;94.13
29385;BME280;16367;48.736;9.218;2023-09-07T01:51:27;-23707.91;;;17.12;94.24
29385;BME280;16367;48.736;9.218;2023-09-07T01:53:30;-23706.47;;;17.07;94.99
29385;BME280;16367;48.736;9.218;2023-09-07T01:55:34;-23706.78;;;17.08;93.46
29385;BME280;16367;48.736;9.218;2023-09-07T01:57:37;-23705.69;;;17.05;93.90
29385;BME280;16367;48.736;9.218;2023-09-07T02:01:50;-23706.31;;;17.07;92.78
29385;BME280;16367;48.736;9.218;2023-09-07T02:03:53;-23703.97;;;16.99;94.68
29385;BME280;16367;48.736;9.218;2023-09-07T02:05:56;-23701.28;;;16.91;95.24
29385;BME280;16367;48.736;9.218;2023-09-07T02:07:59;-23702.38;;;16.94;96.19
29385;BME280;16367;48.736;9.218;2023-09-07T02:10:02;-23703.34;;;16.97;93.70
29385;BME280;16367;48.736;9.218;2023-09-07T02:12:07;-23703.63;;;16.98;94.75
29385;BME280;16367;48.736;9.218;2023-09-07T02:14:10;-23699.38;;;16.85;96.80
29385;BME280;16367;48.736;9.218;2023-09-07T02:16:12;-23697.97;;;16.80;97.21
29385;BME280;16367;48.736;9.218;2023-09-07T02:18:15;-23699.06;;;16.84;96.80
29385;BME280;16367;48.736;9.218;2023-09-07T02:20:18;-23698.59;;;16.82;97.73
29385;BME280;16367;48.736;9.218;2023-09-07T02:22:22;-23703.97;;;16.99;95.38
29385;BME280;16367;48.736;9.218;2023-09-07T02:24:24;-23700.34;;;16.88;96.48
29385;BME280;16367;48.736;9.218;2023-09-07T02:26:27;-23700.66;;;16.89;96.83
29385;BME280;16367;48.736;9.218;2023-09-07T02:28:31;-23700.34;;;16.88;96.92
29385;BME280;16367;48.736;9.218;2023-09-07T02:30:34;-23701.13;;;16.90;96.83
29385;BME280;16367;48.736;9.218;2023-09-07T02:32:37;-23700.50;;;16.88;96.71
29385;BME280;16367;48.736;9.218;2023-09-07T02:34:40;-23703.16;;;16.97;95.22
29385;BME280;16367;48.736;9.218;2023-09-07T02:36:44;-23702.69;;;16.95;96.08
29385;BME280;16367;48.736;9.218;2023-09-07T02:38:46;-23701.75;;;16.92;96.31
29385;BME280;16367;48.736;9.218;2023-09-07T02:40:49;-23698.59;;;16.82;97.33
29385;BME280;16367;48.736;9.218;2023-09-07T02:42:52;-23693.88;;;16.67;99.19
29385;BME280;16367;48.736;9.218;2023-09-07T02:44:56;-23696.09;;;16.74;98.61
29385;BME280;16367;48.736;9.218;2023-09-07T02:46:59;-23697.81;;;16.80;98.04
29385;BME280;16367;48.736;9.218;2023-09-07T02:49:02;-23697.97;;;16.80;97.70
29385;BME280;16367;48.736;9.218;2023-09-07T02:51:05;-23700.34;;;16.88;97.14
29385;BME280;16367;48.736;9.218;2023-09-07T02:53:08;-23700.81;;;16.89;96.13
29385;BME280;16367;48.736;9.218;2023-09-07T02:55:10;-23701.13;;;16.90;95.92
29385;BME280;16367;48.736;9.218;2023-09-07T02:57:12;-23693.88;;;16.67;99.20
29385;BME280;16367;48.736;9.218;2023-09-07T02:59:15;-23695.78;;;16.73;98.04
29385;BME280;16367;48.736;9.218;2023-09-07T03:01:19;-23698.91;;;16.83;96.49
29385;BME280;16367;48.736;9.218;2023-09-07T03:03:22;-23697.03;;;16.77;97.76
29385;BME280;16367;48.736;9.218;2023-09-07T03:05:27;-23695.16;;;16.71;99.00
29385;BME280;16367;48.736;9.218;2023-09-07T03:07:32;-23689.00;;;16.52;100.00
29385;BME280;16367;48.736;9.218;2023-09-07T03:09:35;-23689.16;;;16.52;99.57
29385;BME280;16367;48.736;9.218;2023-09-07T03:11:37;-23689.16;;;16.52;100.00
29385;BME280;16367;48.736;9.218;2023-09-07T03:13:40;-23687.72;;;16.48;100.00
29385;BME280;16367;48.736;9.218;2023-09-07T03:15:44;-23686.31;;;16.43;100.00
29385;BME280;16367;48.736;9.218;2023-09-07T03:17:48;-23683.00;;;16.32;100.00
29385;BME280;16367;48.736;9.218;2023-09-07T03:19:50;-23679.22;;;16.20;100.00
29385;BME280;16367;48.736;9.218;2023-09-07T03:21:53;-23671.19;;;15.95;100.00
29385;BME280;16367;48.736;9.218;2023-09-07T03:23:56;-23676.22;;;16.11;100.00
29385;BME280;16367;48.736;9.218;2023-09-07T03:25:59;-23671.03;;;15.94;100.00
29385;BME280;16367;48.736;9.218;2023-09-07T03:28:03;-23670.56;;;15.93;100.00
29385;BME280;16367;48.736;9.218;2023-09-07T03:30:06;-23666.31;;;15.79;100.00
29385;BME280;16367;48.736;9.218;2023-09-07T03:32:09;-23668.19;;;15.85;100.00
29385;BME280;16367;48.736;9.218;2023-09-07T03:34:12;-23669.94;;;15.91;100.00
29385;BME280;16367;48.736;9.218;2023-09-07T03:36:15;-23669.94;;;15.91;100.00
29385;BME280;16367;48.736;9.218;2023-09-07T03:38:18;-23670.88;;;15.94;100.00
29385;BME280;16367;48.736;9.218;2023-09-07T03:40:21;-23669.13;;;15.88;100.00
29385;BME280;16367;48.736;9.218;2023-09-07T03:42:24;-23668.97;;;15.88;100.00
29385;BME280;16367;48.736;9.218;2023-09-07T03:44:26;-23668.03;;;15.85;100.00
29385;BME280;16367;48.736;9.218;2023-09-07T03:46:29;-23668.34;;;15.86;100.00
29385;BME280;16367;48.736;9.218;2023-09-07T03:48:31;-23667.72;;;15.84;100.00
29385;BME280;16367;48.736;9.218;2023-09-07T03:50:37;-23665.81;;;15.78;100.00
29385;BME280;16367;48.736;9.218;2023-09-07T03:52:39;-23670.09;;;15.91;100.00
29385;BME280;16367;48.736;9.218;2023-09-07T03:54:42;-23666.63;;;15.80;100.00
29385;BME280;16367;48.736;9.218;2023-09-07T03:56:45;-23661.88;;;15.65;100.00
29385;BME280;16367;48.736;9.218;2023-09-07T03:58:47;-23657.00;;;15.49;100.00
29385;BME280;16367;48.736;9.218;2023-09-07T04:00:50;-23656.38;;;15.47;100.00
29385;BME280;16367;48.736;9.218;2023-09-07T04:02:53;-23654.16;;;15.40;100.00
29385;BME280;16367;48.736;9.218;2023-09-07T04:04:56;-23652.25;;;15.34;100.00
29385;BME280;16367;48.736;9.218;2023-09-07T04:07:00;-23652.91;;;15.36;100.00
29385;BME280;16367;48.736;9.218;2023-09-07T04:09:03;-23650.53;;;15.29;100.00
29385;BME280;16367;48.736;9.218;2023-09-07T04:11:06;-23653.84;;;15.39;100.00
29385;BME280;16367;48.736;9.218;2023-09-07T04:13:09;-23656.69;;;15.48;100.00
29385;BME280;16367;48.736;9.218;2023-09-07T04:15:11;-23661.09;;;15.62;100.00
29385;BME280;16367;48.736;9.218;2023-09-07T04:17:14;-23663.63;;;15.71;100.00
29385;BME280;16367;48.736;9.218;2023-09-07T04:19:17;-23659.53;;;15.57;100.00
29385;BME280;16367;48.736;9.218;2023-09-07T04:21:19;-23657.63;;;15.51;100.00
29385;BME280;16367;48.736;9.218;2023-09-07T04:23:24;-23660.47;;;15.60;100.00
29385;BME280;16367;48.736;9.218;2023-09-07T04:25:26;-23656.38;;;15.47;100.00
29385;BME280;16367;48.736;9.218;2023-09-07T04:27:29;-23659.38;;;15.57;100.00
29385;BME280;16367;48.736;9.218;2023-09-07T04:29:31;-23655.75;;;15.45;100.00
29385;BME280;16367;48.736;9.218;2023-09-07T04:31:34;-23657.63;;;15.51;100.00
29385;BME280;16367;48.736;9.218;2023-09-07T04:33:37;-23657.94;;;15.52;100.00
29385;BME280;16367;48.736;9.218;2023-09-07T04:35:40;-23648.16;;;15.21;100.00
29385;BME280;16367;48.736;9.218;2023-09-07T04:37:43;-23647.22;;;15.18;100.00
29385;BME280;16367;48.736;9.218;2023-09-07T04:39:50;-23650.69;;;15.29;100.00
29385;BME280;16367;48.736;9.218;2023-09-07T04:41:53;-23648.47;;;15.22;100.00
29385;BME280;16367;48.736;9.218;2023-09-07T04:43:56;-23645.66;;;15.13;100.00
29385;BME280;16367;48.736;9.218;2023-09-07T04:45:59;-23646.75;;;15.17;100.00
29385;BME280;16367;48.736;9.218;2023-09-07T04:48:02;-23645.97;;;15.14;100.00
29385;BME280;16367;48.736;9.218;2023-09-07T04:50:06;-23644.38;;;15.09;100.00
29385;BME280;16367;48.736;9.218;2023-09-07T04:52:09;-23647.06;;;15.18;100.00
29385;BME280;16367;48.736;9.218;2023-09-07T04:54:11;-23644.06;;;15.08;100.00
29385;BME280;16367;48.736;9.218;2023-09-07T04:56:15;-23643.13;;;15.05;100.00
29385;BME280;16367;48.736;9.218;2023-09-07T04:58:18;-23645.97;;;15.14;100.00
29385;BME280;16367;48.736;9.218;2023-09-07T05:00:21;-23648.78;;;15.23;100.00
29385;BME280;16367;48.736;9.218;2023-09-07T05:02:24;-23646.91;;;15.17;100.00
29385;BME280;16367;48.736;9.218;2023-09-07T05:04:28;-23649.13;;;15.24;100.00
29385;BME280;16367;48.736;9.218;2023-09-07T05:06:32;-23649.91;;;15.27;100.00
29385;BME280;16367;48.736;9.218;2023-09-07T05:08:38;-23648.63;;;15.23;100.00
29385;BME280;16367;48.736;9.218;2023-09-07T05:10:41;-23654.94;;;15.43;100.00
29385;BME280;16367;48.736;9.218;2023-09-07T05:12:45;-23657.78;;;15.52;100.00
29385;BME280;16367;48.736;9.218;2023-09-07T05:14:48;-23659.22;;;15.56;100.00
29385;BME280;16367;48.736;9.218;2023-09-07T05:16:55;-23665.19;;;15.76;100.00
29385;BME280;16367;48.736;9.218;2023-09-07T05:18:59;-23664.88;;;15.75;100.00
29385;BME280;16367;48.736;9.218;2023-09-07T05:21:11;-23667.25;;;15.82;100.00
29385;BME280;16367;48.736;9.218;2023-09-07T05:23:13;-23666.47;;;15.80;100.00
29385;BME280;16367;48.736;9.218;2023-09-07T05:25:17;-23668.97;;;15.88;100.00
29385;BME280;16367;48.736;9.218;2023-09-07T05:27:21;-23670.25;;;15.92;100.00
29385;BME280;16367;48.736;9.218;2023-09-07T05:29:25;-23669.28;;;15.89;100.00
29385;BME280;16367;48.736;9.218;2023-09-07T05:31:28;-23670.25;;;15.92;100.00
29385;BME280;16367;48.736;9.218;2023-09-07T05:33:31;-23673.56;;;16.02;100.00
29385;BME280;16367;48.736;9.218;2023-09-07T05:35:34;-23666.16;;;15.79;100.00
29385;BME280;16367;48.736;9.218;2023-09-07T05:37:39;-23667.25;;;15.82;100.00
29385;BME280;16367;48.736;9.218;2023-09-07T05:39:42;-23670.88;;;15.94;100.00
29385;BME280;16367;48.736;9.218;2023-09-07T05:41:45;-23674.34;;;16.05;100.00
29385;BME280;16367;48.736;9.218;2023-09-07T05:43:48;-23674.03;;;16.04;100.00
29385;BME280;16367;48.736;9.218;2023-09-07T05:45:51;-23674.34;;;16.05;100.00
29385;BME280;16367;48.736;9.218;2023-09-07T05:47:54;-23677.03;;;16.13;100.00
29385;BME280;16367;48.736;9.218;2023-09-07T05:49:56;-23681.75;;;16.28;100.00
29385;BME280;16367;48.736;9.218;2023-09-07T05:51:59;-23678.91;;;16.19;100.00
29385;BME280;16367;48.736;9.218;2023-09-07T05:54:02;-23681.28;;;16.27;100.00
29385;BME280;16367;48.736;9.218;2023-09-07T05:56:05;-23681.59;;;16.28;100.00
29385;BME280;16367;48.736;9.218;2023-09-07T05:58:08;-23682.38;;;16.30;100.00
29385;BME280;16367;48.736;9.218;2023-09-07T06:00:12;-23685.38;;;16.40;100.00
29385;BME280;16367;48.736;9.218;2023-09-07T06:02:18;-23687.72;;;16.48;100.00
29385;BME280;16367;48.736;9.218;2023-09-07T06:04:20;-23691.34;;;16.59;100.00
29385;BME280;16367;48.736;9.218;2023-09-07T06:06:23;-23687.41;;;16.47;100.00
29385;BME280;16367;48.736;9.218;2023-09-07T06:08:26;-23694.81;;;16.70;100.00
29385;BME280;16367;48.736;9.218;2023-09-07T06:10:30;-23693.09;;;16.65;100.00
29385;BME280;16367;48.736;9.218;2023-09-07T06:12:32;-23690.41;;;16.56;100.00
29385;BME280;16367;48.736;9.218;2023-09-07T06:14:35;-23694.19;;;16.68;100.00
29385;BME280;16367;48.736;9.218;2023-09-07T06:16:38;-23698.13;;;16.81;100.00
29385;BME280;16367;48.736;9.218;2023-09-07T06:18:42;-23691.34;;;16.59;100.00
29385;BME280;16367;48.736;9.218;2023-09-07T06:20:45;-23696.09;;;16.74;100.00
29385;BME280;16367;48.736;9.218;2023-09-07T06:22:48;-23692.63;;;16.63;100.00
29385;BME280;16367;48.736;9.218;2023-09-07T06:24:52;-23697.50;;;16.79;100.00
29385;BME280;16367;48.736;9.218;2023-09-07T06:26:53;-23697.34;;;16.78;100.00
29385;BME280;16367;48.736;9.218;2023-09-07T06:28:56;-23709.16;;;17.16;100.00
29385;BME280;16367;48.736;9.218;2023-09-07T06:30:59;-23704.59;;;17.01;100.00
29385;BME280;16367;48.736;9.218;2023-09-07T06:33:02;-23707.09;;;17.09;100.00
29385;BME280;16367;48.736;9.218;2023-09-07T06:35:07;-23711.19;;;17.23;100.00
29385;BME280;16367;48.736;9.218;2023-09-07T06:37:11;-23714.66;;;17.34;100.00
29385;BME280;16367;48.736;9.218;2023-09-07T06:39:14;-23710.25;;;17.20;100.00
29385;BME280;16367;48.736;9.218;2023-09-07T06:41:16;-23715.59;;;17.37;100.00
29385;BME280;16367;48.736;9.218;2023-09-07T06:43:19;-23722.53;;;17.59;99.65
29385;BME280;16367;48.736;9.218;2023-09-07T06:45:22;-23723.00;;;17.60;98.97
29385;BME280;16367;48.736;9.218;2023-09-07T06:47:25;-23731.66;;;17.88;96.82
29385;BME280;16367;48.736;9.218;2023-09-07T06:49:31;-23738.25;;;18.09;95.89
29385;BME280;16367;48.736;9.218;2023-09-07T06:51:35;-23740.00;;;18.15;94.52
29385;BME280;16367;48.736;9.218;2023-09-07T06:53:39;-23748.47;;;18.42;93.66
29385;BME280;16367;48.736;9.218;2023-09-07T06:55:58;-23748.47;;;18.42;92.83
29385;BME280;16367;48.736;9.218;2023-09-07T06:58:00;-23755.09;;;18.63;91.07
29385;BME280;16367;48.736;9.218;2023-09-07T07:00:04;-23759.97;;;18.79;90.15
29385;BME280;16367;48.736;9.218;2023-09-07T07:02:08;-23755.25;;;18.64;90.03
29385;BME280;16367;48.736;9.218;2023-09-07T07:04:11;-23754.16;;;18.60;91.01
29385;BME280;16367;48.736;9.218;2023-09-07T07:06:14;-23770.66;;;19.13;89.35
29385;BME280;16367;48.736;9.218;2023-09-07T07:08:18;-23773.16;;;19.21;88.31
29385;BME280;16367;48.736;9.218;2023-09-07T07:10:20;-23774.09;;;19.24;87.27
29385;BME280;16367;48.736;9.218;2023-09-07T07:12:23;-23785.25;;;19.60;85.59
29385;BME280;16367;48.736;9.218;2023-09-07T07:14:27;-23777.88;;;19.36;85.58
29385;BME280;16367;48.736;9.218;2023-09-07T07:16:30;-23779.44;;;19.41;85.18
29385;BME280;16367;48.736;9.218;2023-09-07T07:18:33;-23784.78;;;19.58;86.55
29385;BME280;16367;48.736;9.218;2023-09-07T07:20:36;-23784.78;;;19.58;84.91
29385;BME280;16367;48.736;9.218;2023-09-07T07:22:39;-23768.44;;;19.06;88.32
29385;BME280;16367;48.736;9.218;2023-09-07T07:24:44;-23773.63;;;19.22;87.12
29385;BME280;16367;48.736;9.218;2023-09-07T07:26:47;-23773.47;;;19.22;87.42
29385;BME280;16367;48.736;9.218;2023-09-07T07:28:49;-23775.66;;;19.29;87.23
29385;BME280;16367;48.736;9.218;2023-09-07T07:30:52;-23768.13;;;19.05;87.09
29385;BME280;16367;48.736;9.218;2023-09-07T07:32:55;-23794.03;;;19.88;84.92
29385;BME280;16367;48.736;9.218;2023-09-07T07:34:58;-23810.38;;;20.40;82.41
29385;BME280;16367;48.736;9.218;2023-09-07T07:37:01;-23805.81;;;20.26;84.13
29385;BME280;16367;48.736;9.218;2023-09-07T07:39:05;-23808.66;;;20.35;82.61
29385;BME280;16367;48.736;9.218;2023-09-07T07:41:10;-23807.06;;;20.30;80.75
29385;BME280;16367;48.736;9.218;2023-09-07T07:43:13;-23821.19;;;20.75;79.92
29385;BME280;16367;48.736;9.218;2023-09-07T07:45:16;-23820.88;;;20.74;78.57
29385;BME280;16367;48.736;9.218;2023-09-07T07:47:21;-23815.53;;;20.57;79.61
29385;BME280;16367;48.736;9.218;2023-09-07T07:49:24;-23822.59;;;20.79;79.93
29385;BME280;16367;48.736;9.218;2023-09-07T07:51:26;-23808.66;;;20.35;80.49
29385;BME280;16367;48.736;9.218;2023-09-07T07:53:29;-23821.19;;;20.75;80.61
29385;BME280;16367;48.736;9.218;2023-09-07T07:55:34;-23846.28;;;21.56;74.66
29385;BME280;16367;48.736;9.218;2023-09-07T07:57:41;-23838.28;;;21.30;77.34
29385;BME280;16367;48.736;9.218;2023-09-07T07:59:44;-23855.06;;;21.84;73.06
29385;BME280;16367;48.736;9.218;2023-09-07T08:01:47;-23875.41;;;22.49;70.42
29385;BME280;16367;48.736;9.218;2023-09-07T08:03:49;-23864.59;;;22.14;71.83
29385;BME280;16367;48.736;9.218;2023-09-07T08:05:53;-23902.31;;;23.36;67.33
29385;BME280;16367;48.736;9.218;2023-09-07T08:07:55;-23911.84;;;23.66;64.61
29385;BME280;16367;48.736;9.218;2023-09-07T08:09:58;-23960.44;;;25.23;60.38
29385;BME280;16367;48.736;9.218;2023-09-07T08:12:01;-23970.09;;;25.54;59.06
29385;BME280;16367;48.736;9.218;2023-09-07T08:14:05;-23924.84;;;24.08;63.37
29385;BME280;16367;48.736;9.218;2023-09-07T08:16:08;-23928.56;;;24.20;62.28
29385;BME280;16367;48.736;9.218;2023-09-07T08:18:15;-23885.13;;;22.80;65.07
29385;BME280;16367;48.736;9.218;2023-09-07T08:20:18;-23897.47;;;23.20;66.86
29385;BME280;16367;48.736;9.218;2023-09-07T08:22:21;-23882.28;;;22.71;67.31
29385;BME280;16367;48.736;9.218;2023-09-07T08:24:24;-23900.44;;;23.30;66.13
29385;BME280;16367;48.736;9.218;2023-09-07T08:26:26;-23895.91;;;23.15;67.00
29385;BME280;16367;48.736;9.218;2023-09-07T08:28:29;-23851.44;;;21.72;71.36
29385;BME280;16367;48.736;9.218;2023-09-07T08:30:34;-23856.94;;;21.90;73.87
29385;BME280;16367;48.736;9.218;2023-09-07T08:32:36;-23856.63;;;21.89;71.57
29385;BME280;16367;48.736;9.218;2023-09-07T08:34:40;-23891.69;;;23.02;66.70
29385;BME280;16367;48.736;9.218;2023-09-07T08:36:43;-23890.44;;;22.97;67.26
29385;BME280;16367;48.736;9.218;2023-09-07T08:38:50;-23887.31;;;22.87;70.17
29385;BME280;16367;48.736;9.218;2023-09-07T08:40:54;-23882.28;;;22.71;68.30
29385;BME280;16367;48.736;9.218;2023-09-07T08:42:57;-23914.81;;;23.76;65.19
29385;BME280;16367;48.736;9.218;2023-09-07T08:45:03;-23914.50;;;23.75;64.50
29385;BME280;16367;48.736;9.218;2023-09-07T08:47:09;-23911.06;;;23.64;64.42
29385;BME280;16367;48.736;9.218;2023-09-07T08:49:13;-23919.34;;;23.91;64.02
29385;BME280;16367;48.736;9.218;2023-09-07T08:51:18;-23944.66;;;24.72;59.13
29385;BME280;16367;48.736;9.218;2023-09-07T08:53:21;-23922.31;;;24.00;62.33
29385;BME280;16367;48.736;9.218;2023-09-07T08:55:25;-23981.00;;;25.89;56.87
29385;BME280;16367;48.736;9.218;2023-09-07T08:57:29;-23929.50;;;24.23;60.94
29385;BME280;16367;48.736;9.218;2023-09-07T08:59:32;-23961.38;;;25.26;58.34
29385;BME280;16367;48.736;9.218;2023-09-07T09:01:35;-23982.56;;;25.95;57.38
29385;BME280;16367;48.736;9.218;2023-09-07T09:03:41;-24010.16;;;26.84;55.59
29385;BME280;16367;48.736;9.218;2023-09-07T09:05:45;-24011.72;;;26.89;53.59
29385;BME280;16367;48.736;9.218;2023-09-07T09:07:49;-24008.44;;;26.78;55.87
29385;BME280;16367;48.736;9.218;2023-09-07T09:10:02;-24019.19;;;27.13;51.53
29385;BME280;16367;48.736;9.218;2023-09-07T09:12:07;-24022.75;;;27.24;54.56
29385;BME280;16367;48.736;9.218;2023-09-07T09:14:10;-24043.47;;;27.91;52.01
29385;BME280;16367;48.736;9.218;2023-09-07T09:16:19;-24047.97;;;28.06;51.25
29385;BME280;16367;48.736;9.218;2023-09-07T09:18:23;-24043.63;;;27.92;51.55
29385;BME280;16367;48.736;9.218;2023-09-07T09:20:26;-23995.66;;;26.37;53.99
29385;BME280;16367;48.736;9.218;2023-09-07T09:22:29;-24000.97;;;26.54;54.33
29385;BME280;16367;48.736;9.218;2023-09-07T09:24:32;-24042.84;;;27.89;51.47
29385;BME280;16367;48.736;9.218;2023-09-07T09:26:36;-24034.13;;;27.61;53.04
29385;BME280;16367;48.736;9.218;2023-09-07T09:28:39;-24062.59;;;28.53;50.86
29385;BME280;16367;48.736;9.218;2023-09-07T09:30:42;-24098.00;;;29.68;48.69
29385;BME280;16367;48.736;9.218;2023-09-07T09:32:46;-24088.06;;;29.36;47.66
29385;BME280;16367;48.736;9.218;2023-09-07T09:34:50;-24007.81;;;26.76;53.60
29385;BME280;16367;48.736;9.218;2023-09-07T09:36:54;-24038.03;;;27.74;51.50
29385;BME280;16367;48.736;9.218;2023-09-07T09:38:57;-24053.88;;;28.25;49.92
29385;BME280;16367;48.736;9.218;2023-09-07T09:41:00;-24026.03;;;27.35;53.96
29385;BME280;16367;48.736;9.218;2023-09-07T09:43:04;-24073.00;;;28.87;50.13
29385;BME280;16367;48.736;9.218;2023-09-07T09:45:09;-24042.53;;;27.88;50.90
29385;BME280;16367;48.736;9.218;2023-09-07T09:47:13;-24053.56;;;28.24;51.69
29385;BME280;16367;48.736;9.218;2023-09-07T09:49:17;-24094.88;;;29.58;48.30
29385;BME280;16367;48.736;9.218;2023-09-07T09:51:20;-24130.56;;;30.74;45.93
29385;BME280;16367;48.736;9.218;2023-09-07T09:53:26;-24167.41;;;31.94;43.33
29385;BME280;16367;48.736;9.218;2023-09-07T09:55:30;-24092.41;;;29.50;49.01
29385;BME280;16367;48.736;9.218;2023-09-07T09:57:34;-24108.06;;;30.01;46.56
29385;BME280;16367;48.736;9.218;2023-09-07T09:59:36;-24098.59;;;29.70;47.77
29385;BME280;16367;48.736;9.218;2023-09-07T10:01:43;-24111.19;;;30.11;46.35
29385;BME280;16367;48.736;9.218;2023-09-07T10:03:47;-24102.34;;;29.82;47.97
29385;BME280;16367;48.736;9.218;2023-09-07T10:05:51;-24049.69;;;28.12;50.61
29385;BME280;16367;48.736;9.218;2023-09-07T10:08:00;-24057.94;;;28.38;49.94
29385;BME280;16367;48.736;9.218;2023-09-07T10:10:09;-24060.88;;;28.48;51.39
29385;BME280;16367;48.736;9.218;2023-09-07T10:12:12;-24089.78;;;29.41;50.20
29385;BME280;16367;48.736;9.218;2023-09-07T10:14:18;-24078.13;;;29.04;49.82
29385;BME280;16367;48.736;9.218;2023-09-07T10:16:21;-24051.72;;;28.18;51.43
29385;BME280;16367;48.736;9.218;2023-09-07T10:18:33;-24069.44;;;28.75;51.85
29385;BME280;16367;48.736;9.218;2023-09-07T10:20:50;-24006.56;;;26.72;54.97
29385;BME280;16367;48.736;9.218;2023-09-07T10:23:02;-24070.97;;;28.81;50.47
29385;BME280;16367;48.736;9.218;2023-09-07T10:25:06;-24091.16;;;29.46;48.59
29385;BME280;16367;48.736;9.218;2023-09-07T10:27:19;-24012.34;;;26.91;54.04
29385;BME280;16367;48.736;9.218;2023-09-07T10:29:22;-23990.69;;;26.21;57.16
29385;BME280;16367;48.736;9.218;2023-09-07T10:31:26;-24047.97;;;28.06;52.56
29385;BME280;16367;48.736;9.218;2023-09-07T10:33:48;-24035.84;;;27.67;52.42
29385;BME280;16367;48.736;9.218;2023-09-07T10:35:51;-24047.66;;;28.05;52.61
29385;BME280;16367;48.736;9.218;2023-09-07T10:37:54;-24070.34;;;28.78;51.24
29385;BME280;16367;48.736;9.218;2023-09-07T10:39:57;-24040.19;;;27.81;53.44
29385;BME280;16367;48.736;9.218;2023-09-07T10:42:01;-24013.28;;;26.94;55.88
29385;BME280;16367;48.736;9.218;2023-09-07T10:44:04;-24045.16;;;27.97;52.95
29385;BME280;16367;48.736;9.218;2023-09-07T10:46:08;-24015.91;;;27.02;55.66